createdAt,value
2022-07-26T00:01:19.713Z,16.83
2022-07-26T00:03:46.939Z,10.17
2022-07-26T00:06:13.375Z,12.40
2022-07-26T00:08:39.835Z,11.33
2022-07-26T00:11:07.119Z,11.00
2022-07-26T00:13:33.999Z,11.93
2022-07-26T00:16:00.617Z,14.13
2022-07-26T00:18:27.364Z,8.63
2022-07-26T00:20:53.877Z,12.73
2022-07-26T00:23:22.182Z,7.87
2022-07-26T00:25:48.690Z,10.17
2022-07-26T00:28:15.150Z,10.27
2022-07-26T00:30:41.573Z,10.53
2022-07-26T00:33:07.954Z,14.43
2022-07-26T00:35:34.999Z,10.03
2022-07-26T00:38:01.358Z,7.80
2022-07-26T00:40:27.760Z,13.10
2022-07-26T00:42:54.199Z,8.83
2022-07-26T00:45:20.735Z,10.80
2022-07-26T00:47:47.242Z,10.53
2022-07-26T00:50:15.101Z,11.60
2022-07-26T00:52:42.058Z,9.70
2022-07-26T00:55:08.863Z,6.97
2022-07-26T00:57:35.941Z,8.53
2022-07-26T01:00:04.699Z,9.10
2022-07-26T01:02:31.146Z,10.40
2022-07-26T01:04:57.628Z,12.97
2022-07-26T01:07:24.148Z,10.60
2022-07-26T01:09:50.595Z,10.70
2022-07-26T01:12:18.258Z,11.30
2022-07-26T01:14:45.155Z,6.87
2022-07-26T01:17:14.847Z,16.43
2022-07-26T01:19:41.675Z,8.17
2022-07-26T01:22:13.911Z,13.27
2022-07-26T01:24:40.984Z,9.13
2022-07-26T01:27:07.827Z,8.00
2022-07-26T01:29:35.939Z,13.40
2022-07-26T01:32:04.142Z,12.70
2022-07-26T01:34:30.779Z,11.83
2022-07-26T01:36:57.331Z,11.83
2022-07-26T01:39:23.774Z,14.83
2022-07-26T01:41:50.201Z,13.10
2022-07-26T01:44:16.599Z,10.10
2022-07-26T01:46:42.973Z,8.30
2022-07-26T01:49:09.558Z,11.27
2022-07-26T01:51:36.038Z,14.77
2022-07-26T01:54:02.785Z,11.00
2022-07-26T01:56:29.181Z,12.47
2022-07-26T01:58:55.625Z,11.83
2022-07-26T02:01:38.845Z,11.93
2022-07-26T02:04:07.287Z,10.63
2022-07-26T02:06:34.415Z,11.90
2022-07-26T02:09:00.922Z,11.07
2022-07-26T02:11:28.391Z,12.07
2022-07-26T02:13:54.759Z,12.00
2022-07-26T02:16:21.202Z,13.00
2022-07-26T02:18:47.734Z,9.00
2022-07-26T02:21:14.212Z,20.03
2022-07-26T02:23:41.962Z,11.57
2022-07-26T02:26:08.696Z,9.83
2022-07-26T02:28:35.098Z,17.30
2022-07-26T02:31:01.573Z,10.80
2022-07-26T02:33:28.520Z,15.63
2022-07-26T02:35:54.927Z,10.27
2022-07-26T02:38:21.337Z,10.37
2022-07-26T02:40:50.603Z,15.00
2022-07-26T02:43:17.241Z,15.37
2022-07-26T02:45:43.678Z,9.83
2022-07-26T02:48:10.200Z,11.83
2022-07-26T02:50:36.704Z,16.30
2022-07-26T02:53:03.111Z,9.33
2022-07-26T02:55:29.557Z,11.63
2022-07-26T02:57:56.112Z,17.27
2022-07-26T03:00:24.203Z,16.20
2022-07-26T03:02:51.479Z,14.33
2022-07-26T03:05:18.511Z,15.50
2022-07-26T03:07:44.951Z,11.20
2022-07-26T03:10:11.413Z,13.13
2022-07-26T03:12:38.016Z,15.07
2022-07-26T03:15:04.742Z,19.90
2022-07-26T03:17:31.167Z,9.87
2022-07-26T03:19:58.718Z,14.57
2022-07-26T03:22:25.184Z,10.90
2022-07-26T03:24:51.658Z,16.90
2022-07-26T03:27:18.040Z,11.87
2022-07-26T03:29:44.428Z,9.80
2022-07-26T03:32:10.844Z,10.97
2022-07-26T03:34:37.312Z,12.87
2022-07-26T03:37:04.072Z,19.33
2022-07-26T03:39:30.488Z,19.57
2022-07-26T03:41:56.925Z,15.60
2022-07-26T03:44:23.382Z,16.17
2022-07-26T03:46:49.779Z,11.50
2022-07-26T03:49:17.239Z,13.07
2022-07-26T03:51:44.242Z,14.17
2022-07-26T03:54:11.404Z,10.40
2022-07-26T03:56:38.103Z,14.40
2022-07-26T03:59:05.656Z,22.57
2022-07-26T04:01:33.159Z,19.37
2022-07-26T04:03:59.687Z,15.03
2022-07-26T04:06:26.122Z,19.53
2022-07-26T04:08:52.879Z,14.27
2022-07-26T04:11:19.805Z,14.43
2022-07-26T04:13:46.356Z,18.10
2022-07-26T04:16:13.187Z,18.47
2022-07-26T04:18:39.613Z,13.93
2022-07-26T04:21:06.182Z,15.83
2022-07-26T04:23:32.630Z,17.53
2022-07-26T04:25:59.158Z,14.63
2022-07-26T04:28:29.127Z,16.57
2022-07-26T04:30:56.370Z,17.33
2022-07-26T04:33:23.239Z,16.50
2022-07-26T04:35:49.962Z,15.43
2022-07-26T04:38:16.456Z,17.50
2022-07-26T04:40:42.984Z,19.30
2022-07-26T04:43:15.292Z,13.57
2022-07-26T04:45:42.269Z,18.17
2022-07-26T04:48:08.681Z,12.87
2022-07-26T04:50:35.178Z,11.30
2022-07-26T04:53:01.678Z,16.63
2022-07-26T04:55:28.134Z,15.73
2022-07-26T04:57:54.583Z,12.17
2022-07-26T05:00:23.240Z,8.03
2022-07-26T05:03:00.251Z,8.00
2022-07-26T05:05:27.715Z,6.87
2022-07-26T05:07:56.148Z,10.07
2022-07-26T05:10:27.344Z,5.53
2022-07-26T05:12:53.750Z,6.13
2022-07-26T05:15:20.663Z,4.23
2022-07-26T05:17:47.331Z,6.80
2022-07-26T05:20:14.904Z,4.47
2022-07-26T05:22:41.493Z,7.73
2022-07-26T05:25:08.345Z,8.23
2022-07-26T05:27:34.747Z,16.90
2022-07-26T05:30:01.154Z,7.00
2022-07-26T05:32:30.351Z,7.27
2022-07-26T05:34:56.795Z,7.07
2022-07-26T05:37:23.170Z,7.10
2022-07-26T05:39:49.627Z,8.73
2022-07-26T05:42:15.978Z,11.30
2022-07-26T05:44:42.842Z,10.13
2022-07-26T05:47:09.565Z,10.33
2022-07-26T05:49:40.137Z,12.07
2022-07-26T05:52:07.524Z,8.57
2022-07-26T05:54:33.938Z,12.27
2022-07-26T05:57:00.330Z,9.57
2022-07-26T05:59:26.731Z,8.07
2022-07-26T06:01:56.494Z,6.80
2022-07-26T06:04:23.618Z,8.77
2022-07-26T06:06:53.031Z,11.77
2022-07-26T06:09:19.614Z,13.67
2022-07-26T06:11:47.497Z,13.20
2022-07-26T06:14:14.608Z,9.17
2022-07-26T06:16:41.504Z,17.23
2022-07-26T06:19:08.007Z,12.87
2022-07-26T06:21:34.422Z,16.10
2022-07-26T06:24:00.858Z,20.30
2022-07-26T06:26:27.268Z,12.97
2022-07-26T06:28:53.716Z,11.67
2022-07-26T06:31:20.216Z,12.60
2022-07-26T06:33:47.162Z,10.67
2022-07-26T06:36:13.594Z,14.90
2022-07-26T06:38:40.150Z,14.43
2022-07-26T06:41:06.685Z,9.83
2022-07-26T06:43:33.099Z,12.10
2022-07-26T06:45:59.573Z,13.83
2022-07-26T06:48:26.058Z,13.70
2022-07-26T06:50:52.556Z,11.80
2022-07-26T06:53:18.959Z,15.67
2022-07-26T06:55:45.943Z,10.70
2022-07-26T06:58:12.508Z,16.20
2022-07-26T07:00:39.087Z,13.70
2022-07-26T07:03:05.658Z,10.97
2022-07-26T07:05:32.904Z,11.30
2022-07-26T07:07:59.301Z,8.77
2022-07-26T07:10:26.291Z,4.77
2022-07-26T07:12:52.680Z,8.17
2022-07-26T07:15:19.111Z,6.57
2022-07-26T07:17:45.496Z,6.90
2022-07-26T07:20:12.156Z,6.47
2022-07-26T07:22:38.617Z,9.97
2022-07-26T07:25:06.090Z,4.67
2022-07-26T07:27:33.258Z,7.30
2022-07-26T07:29:59.768Z,7.80
2022-07-26T07:32:26.426Z,6.03
2022-07-26T07:34:53.132Z,8.10
2022-07-26T07:37:20.540Z,4.70
2022-07-26T07:39:50.025Z,8.00
2022-07-26T07:42:16.949Z,7.93
2022-07-26T07:44:43.517Z,9.53
2022-07-26T07:47:10.097Z,7.67
2022-07-26T07:49:36.577Z,6.13
2022-07-26T07:52:03.345Z,5.70
2022-07-26T07:54:30.062Z,5.57
2022-07-26T07:56:56.559Z,5.80
2022-07-26T07:59:23.503Z,4.60
2022-07-26T08:01:50.040Z,4.30
2022-07-26T08:04:16.714Z,5.23
2022-07-26T08:06:43.261Z,2.20
2022-07-26T08:09:16.942Z,6.03
2022-07-26T08:11:43.354Z,3.23
2022-07-26T08:14:09.771Z,5.63
2022-07-26T08:16:36.270Z,5.80
2022-07-26T08:19:02.788Z,5.70
2022-07-26T08:21:29.553Z,4.70
2022-07-26T08:23:56.638Z,8.07
2022-07-26T08:26:23.146Z,4.50
2022-07-26T08:28:58.499Z,3.97
2022-07-26T08:31:26.124Z,3.70
2022-07-26T08:33:52.570Z,8.80
2022-07-26T08:36:18.935Z,2.57
2022-07-26T08:38:47.544Z,8.93
2022-07-26T08:41:14.766Z,7.20
2022-07-26T08:43:51.257Z,10.77
2022-07-26T08:46:24.462Z,4.27
2022-07-26T08:48:52.210Z,4.10
2022-07-26T08:51:20.166Z,6.10
2022-07-26T08:53:46.987Z,5.90
2022-07-26T08:56:13.405Z,5.10
2022-07-26T08:58:40.867Z,1.97
2022-07-26T09:01:08.943Z,4.37
2022-07-26T09:03:39.035Z,4.10
2022-07-26T09:06:31.813Z,3.00
2022-07-26T09:09:10.171Z,4.43
2022-07-26T09:11:36.863Z,4.83
2022-07-26T09:14:04.512Z,5.23
2022-07-26T09:16:31.273Z,2.50
2022-07-26T09:19:16.028Z,6.93
2022-07-26T09:21:42.448Z,6.20
2022-07-26T09:24:09.939Z,6.43
2022-07-26T09:26:36.550Z,4.70
2022-07-26T09:29:07.942Z,3.00
2022-07-26T09:31:35.453Z,3.20
2022-07-26T09:34:02.151Z,4.20
2022-07-26T09:36:28.913Z,4.20
2022-07-26T09:38:58.356Z,3.20
2022-07-26T09:41:28.989Z,3.67
2022-07-26T09:43:56.559Z,4.77
2022-07-26T09:46:26.056Z,5.33
2022-07-26T09:49:09.895Z,3.40
2022-07-26T09:51:42.430Z,7.13
2022-07-26T09:54:10.089Z,4.93
2022-07-26T09:56:47.406Z,3.83
2022-07-26T09:59:15.334Z,7.13
2022-07-26T10:01:42.225Z,4.03
2022-07-26T10:04:09.092Z,6.53
2022-07-26T10:06:35.666Z,6.27
2022-07-26T10:09:02.123Z,3.67
2022-07-26T10:11:32.125Z,5.53
2022-07-26T10:13:59.056Z,4.60
2022-07-26T10:16:29.272Z,5.77
2022-07-26T10:18:57.877Z,3.37
2022-07-26T10:21:30.830Z,6.83
2022-07-26T10:23:58.308Z,4.57
2022-07-26T10:26:33.961Z,4.50
2022-07-26T10:29:20.299Z,3.50
2022-07-26T10:31:49.291Z,2.97
2022-07-26T10:34:32.302Z,5.27
2022-07-26T10:36:59.580Z,5.50
2022-07-26T10:39:26.093Z,3.20
2022-07-26T10:42:19.118Z,3.43
2022-07-26T10:44:45.543Z,6.87
2022-07-26T10:47:15.656Z,5.57
2022-07-26T10:49:58.115Z,3.27
2022-07-26T10:52:28.426Z,3.08
2022-07-26T10:55:01.028Z,2.78
2022-07-26T10:57:32.110Z,3.65
2022-07-26T10:59:59.289Z,6.07
2022-07-26T11:02:28.800Z,3.63
2022-07-26T11:05:12.666Z,5.07
2022-07-26T11:07:59.070Z,4.55
2022-07-26T11:10:25.456Z,4.75
2022-07-26T11:13:02.103Z,2.55
2022-07-26T11:15:28.546Z,4.47
2022-07-26T11:18:11.620Z,5.68
2022-07-26T11:20:38.585Z,5.93
2022-07-26T11:23:05.216Z,6.93
2022-07-26T11:25:31.714Z,7.77
2022-07-26T11:27:59.312Z,4.97
2022-07-26T11:30:27.552Z,15.40
2022-07-26T11:32:54.620Z,8.67
2022-07-26T11:35:21.138Z,3.80
2022-07-26T11:37:53.228Z,3.10
2022-07-26T11:40:19.812Z,4.55
2022-07-26T11:42:46.233Z,7.22
2022-07-26T11:45:12.728Z,3.40
2022-07-26T11:47:39.184Z,7.55
2022-07-26T11:50:21.947Z,9.90
2022-07-26T11:52:48.908Z,7.55
2022-07-26T11:55:15.354Z,6.13
2022-07-26T11:57:41.732Z,8.30
2022-07-26T12:00:08.668Z,9.57
2022-07-26T12:02:35.099Z,8.43
2022-07-26T12:05:19.444Z,5.57
2022-07-26T12:07:56.802Z,5.10
2022-07-26T12:10:24.113Z,7.53
2022-07-26T12:12:50.776Z,6.07
2022-07-26T12:15:20.071Z,9.40
2022-07-26T12:17:59.131Z,5.35
2022-07-26T12:20:28.079Z,6.57
2022-07-26T12:22:55.170Z,13.55
2022-07-26T12:25:25.239Z,6.13
2022-07-26T12:27:51.607Z,4.55
2022-07-26T12:30:18.049Z,8.65
2022-07-26T12:32:45.497Z,5.85
2022-07-26T12:35:13.012Z,7.63
2022-07-26T12:37:45.417Z,5.97
2022-07-26T12:40:11.907Z,6.13
2022-07-26T12:42:42.700Z,8.43
2022-07-26T12:45:10.305Z,3.97
2022-07-26T12:47:37.648Z,4.78
2022-07-26T12:50:04.957Z,10.20
2022-07-26T12:52:31.775Z,7.07
2022-07-26T12:54:58.243Z,4.35
2022-07-26T12:57:24.689Z,10.70
2022-07-26T12:59:51.354Z,8.80
2022-07-26T13:02:18.454Z,5.80
2022-07-26T13:04:45.543Z,6.80
2022-07-26T13:07:12.243Z,7.90
2022-07-26T13:09:39.028Z,8.05
2022-07-26T13:12:05.976Z,5.97
2022-07-26T13:14:35.874Z,5.70
2022-07-26T13:17:02.944Z,5.43
2022-07-26T13:19:29.747Z,5.40
2022-07-26T13:21:57.186Z,5.07
2022-07-26T13:24:24.179Z,7.20
2022-07-26T13:26:51.562Z,6.00
2022-07-26T13:29:18.857Z,8.60
2022-07-26T13:31:45.315Z,4.28
2022-07-26T13:34:12.174Z,7.35
2022-07-26T13:36:38.837Z,6.60
2022-07-26T13:39:05.706Z,5.00
2022-07-26T13:41:32.123Z,8.15
2022-07-26T13:44:02.461Z,6.43
2022-07-26T13:46:33.443Z,7.75
2022-07-26T13:49:01.718Z,7.05
2022-07-26T13:51:51.512Z,9.98
2022-07-26T13:54:18.475Z,7.07
2022-07-26T13:56:45.080Z,5.25
2022-07-26T13:59:11.758Z,6.28
2022-07-26T14:01:44.585Z,8.07
2022-07-26T14:04:12.824Z,5.03
2022-07-26T14:06:40.147Z,7.65
2022-07-26T14:09:10.573Z,8.13
2022-07-26T14:11:37.775Z,6.95
2022-07-26T14:14:04.428Z,19.13
2022-07-26T14:16:31.070Z,6.78
2022-07-26T14:18:58.348Z,5.00
2022-07-26T14:21:25.376Z,7.03
2022-07-26T14:23:51.950Z,6.05
2022-07-26T14:26:18.371Z,7.53
2022-07-26T14:28:45.112Z,6.95
2022-07-26T14:31:11.695Z,5.43
2022-07-26T14:33:38.180Z,5.80
2022-07-26T14:36:04.746Z,9.00
2022-07-26T14:38:31.160Z,4.78
2022-07-26T14:40:58.108Z,5.20
2022-07-26T14:43:26.042Z,3.75
2022-07-26T14:45:53.443Z,6.60
2022-07-26T14:48:44.317Z,6.80
2022-07-26T14:51:09.498Z,1.95
2022-07-26T14:53:36.568Z,4.10
2022-07-26T14:56:03.043Z,6.63
2022-07-26T14:58:29.480Z,9.18
2022-07-26T15:00:56.446Z,7.95
2022-07-26T15:03:22.945Z,5.90
2022-07-26T15:05:49.586Z,4.85
2022-07-26T15:08:15.997Z,5.15
2022-07-26T15:10:42.803Z,5.03
2022-07-26T15:13:09.350Z,2.83
2022-07-26T15:15:35.848Z,6.07
2022-07-26T15:18:02.308Z,4.68
2022-07-26T15:20:28.868Z,4.95
2022-07-26T15:22:55.367Z,3.75
2022-07-26T15:25:22.720Z,6.28
2022-07-26T15:27:49.334Z,4.30
2022-07-26T15:30:16.070Z,3.88
2022-07-26T15:32:43.998Z,5.32
2022-07-26T15:35:14.241Z,8.52
2022-07-26T15:37:41.694Z,8.38
2022-07-26T15:40:08.315Z,7.95
2022-07-26T15:42:38.491Z,5.07
2022-07-26T15:45:09.448Z,5.03
2022-07-26T15:47:53.794Z,8.85
2022-07-26T15:50:22.559Z,8.07
2022-07-26T15:52:49.304Z,6.35
2022-07-26T15:55:16.953Z,9.23
2022-07-26T15:57:43.963Z,6.50
2022-07-26T16:00:12.478Z,7.40
2022-07-26T16:02:39.566Z,5.45
2022-07-26T16:05:06.448Z,7.70
2022-07-26T16:07:32.899Z,7.63
2022-07-26T16:09:59.343Z,5.50
2022-07-26T16:12:25.765Z,8.55
2022-07-26T16:14:52.154Z,3.97
2022-07-26T16:17:18.524Z,7.82
2022-07-26T16:19:44.898Z,3.85
2022-07-26T16:22:11.304Z,4.07
2022-07-26T16:24:37.690Z,3.30
2022-07-26T16:27:04.149Z,2.75
2022-07-26T16:29:30.551Z,3.78
2022-07-26T16:31:56.988Z,12.82
2022-07-26T16:34:23.464Z,4.75
2022-07-26T16:36:49.861Z,5.15
2022-07-26T16:39:16.371Z,9.52
2022-07-26T16:41:42.959Z,9.85
2022-07-26T16:44:09.413Z,9.68
2022-07-26T16:46:35.912Z,7.32
2022-07-26T16:49:02.447Z,4.82
2022-07-26T16:51:31.302Z,3.55
2022-07-26T16:53:57.706Z,5.50
2022-07-26T16:56:24.115Z,9.98
2022-07-26T16:58:50.570Z,5.35
2022-07-26T17:01:17.182Z,5.70
2022-07-26T17:03:43.712Z,5.37
2022-07-26T17:06:10.123Z,5.33
2022-07-26T17:08:36.581Z,4.20
2022-07-26T17:11:03.886Z,3.63
2022-07-26T17:13:30.329Z,10.17
2022-07-26T17:15:56.841Z,5.30
2022-07-26T17:18:23.350Z,7.77
2022-07-26T17:20:50.027Z,6.07
2022-07-26T17:23:18.505Z,5.33
2022-07-26T17:25:45.118Z,4.73
2022-07-26T17:28:11.507Z,4.57
2022-07-26T17:30:37.956Z,6.53
2022-07-26T17:33:04.551Z,5.43
2022-07-26T17:35:31.117Z,4.40
2022-07-26T17:37:57.516Z,8.63
2022-07-26T17:40:25.676Z,4.57
2022-07-26T17:42:52.460Z,6.67
2022-07-26T17:45:18.901Z,3.87
2022-07-26T17:47:45.359Z,6.63
2022-07-26T17:50:36.666Z,2.70
2022-07-26T17:52:58.526Z,2.67
2022-07-26T17:55:25.063Z,5.53
2022-07-26T17:57:51.596Z,3.90
2022-07-26T18:00:18.995Z,3.70
2022-07-26T18:02:45.584Z,5.47
2022-07-26T18:05:12.451Z,4.70
2022-07-26T18:07:39.291Z,5.13
2022-07-26T18:10:06.058Z,5.23
2022-07-26T18:12:32.499Z,3.57
2022-07-26T18:14:58.892Z,4.90
2022-07-26T18:17:25.476Z,3.57
2022-07-26T18:19:51.874Z,6.80
2022-07-26T18:22:18.333Z,4.57
2022-07-26T18:24:44.709Z,8.77
2022-07-26T18:27:11.096Z,6.57
2022-07-26T18:29:37.474Z,4.70
2022-07-26T18:32:03.932Z,7.10
2022-07-26T18:34:30.335Z,5.00
2022-07-26T18:36:56.800Z,6.50
2022-07-26T18:39:23.170Z,9.20
2022-07-26T18:41:49.627Z,5.23
2022-07-26T18:44:16.088Z,6.00
2022-07-26T18:46:42.520Z,24.30
2022-07-26T18:49:09.393Z,6.23
2022-07-26T18:51:42.923Z,9.37
2022-07-26T18:54:09.701Z,8.23
2022-07-26T18:56:36.238Z,6.03
2022-07-26T18:59:03.448Z,5.47
2022-07-26T19:01:29.898Z,11.93
2022-07-26T19:03:56.427Z,3.53
2022-07-26T19:06:24.755Z,8.00
2022-07-26T19:08:51.141Z,5.00
2022-07-26T19:11:17.562Z,5.77
2022-07-26T19:13:43.996Z,3.83
2022-07-26T19:16:11.297Z,6.03
2022-07-26T19:18:37.870Z,4.70
2022-07-26T19:21:04.273Z,7.50
2022-07-26T19:23:30.695Z,6.40
2022-07-26T19:25:57.060Z,7.07
2022-07-26T19:28:23.899Z,5.67
2022-07-26T19:30:50.340Z,6.73
2022-07-26T19:33:16.950Z,4.90
2022-07-26T19:35:43.371Z,7.53
2022-07-26T19:38:09.767Z,5.43
2022-07-26T19:40:36.187Z,5.80
2022-07-26T19:43:02.605Z,4.80
2022-07-26T19:45:29.043Z,7.87
2022-07-26T19:47:55.525Z,7.63
2022-07-26T19:50:21.961Z,6.97
2022-07-26T19:52:48.321Z,5.10
2022-07-26T19:55:14.730Z,6.40
2022-07-26T19:57:41.143Z,8.17
2022-07-26T20:00:08.020Z,6.90
2022-07-26T20:02:34.484Z,5.50
2022-07-26T20:05:00.947Z,4.83
2022-07-26T20:07:27.382Z,12.87
2022-07-26T20:09:53.963Z,4.97
2022-07-26T20:12:20.661Z,7.40
2022-07-26T20:14:47.079Z,4.00
2022-07-26T20:17:14.237Z,9.30
2022-07-26T20:19:41.071Z,3.90
2022-07-26T20:22:07.508Z,7.10
2022-07-26T20:24:33.963Z,3.80
2022-07-26T20:27:00.539Z,6.43
2022-07-26T20:29:26.947Z,10.30
2022-07-26T20:31:53.339Z,7.10
2022-07-26T20:34:19.735Z,10.40
2022-07-26T20:36:46.311Z,8.20
2022-07-26T20:39:13.067Z,8.83
2022-07-26T20:41:40.051Z,5.40
2022-07-26T20:44:06.522Z,11.23
2022-07-26T20:46:33.525Z,8.43
2022-07-26T20:49:00.083Z,7.33
2022-07-26T20:51:26.603Z,5.77
2022-07-26T20:53:53.058Z,7.60
2022-07-26T20:56:19.493Z,5.20
2022-07-26T20:58:45.914Z,4.63
2022-07-26T21:01:13.138Z,7.80
2022-07-26T21:03:39.692Z,12.67
2022-07-26T21:06:06.175Z,7.90
2022-07-26T21:08:32.611Z,7.37
2022-07-26T21:10:59.098Z,6.60
2022-07-26T21:13:25.517Z,6.03
2022-07-26T21:15:54.231Z,5.63
2022-07-26T21:18:21.234Z,6.20
2022-07-26T21:20:47.687Z,5.53
2022-07-26T21:23:17.852Z,10.77
2022-07-26T21:25:44.971Z,8.70
2022-07-26T21:28:11.372Z,7.70
2022-07-26T21:30:37.917Z,9.20
2022-07-26T21:33:04.405Z,8.07
2022-07-26T21:35:32.282Z,6.13
2022-07-26T21:37:58.740Z,5.13
2022-07-26T21:40:25.174Z,6.20
2022-07-26T21:42:51.657Z,5.37
2022-07-26T21:45:18.118Z,8.23
2022-07-26T21:47:44.506Z,3.70
2022-07-26T21:50:10.924Z,7.53
2022-07-26T21:52:37.364Z,8.27
2022-07-26T21:55:03.964Z,6.53
2022-07-26T21:57:30.407Z,6.63
2022-07-26T21:59:56.839Z,9.27
2022-07-26T22:02:23.280Z,5.87
2022-07-26T22:04:49.758Z,10.77
2022-07-26T22:07:16.127Z,5.60
2022-07-26T22:09:42.605Z,9.83
2022-07-26T22:12:09.299Z,6.87
2022-07-26T22:14:35.672Z,5.73
2022-07-26T22:17:02.204Z,9.20
2022-07-26T22:19:28.700Z,6.40
2022-07-26T22:21:55.105Z,10.43
2022-07-26T22:24:21.558Z,6.17
2022-07-26T22:26:47.952Z,5.60
2022-07-26T22:29:14.645Z,7.77
2022-07-26T22:31:41.323Z,6.97
2022-07-26T22:34:07.716Z,6.47
2022-07-26T22:36:34.183Z,11.13
2022-07-26T22:39:00.599Z,11.60
2022-07-26T22:41:27.002Z,8.43
2022-07-26T22:43:58.447Z,10.03
2022-07-26T22:46:27.786Z,5.43
2022-07-26T22:48:56.143Z,4.57
2022-07-26T22:51:22.574Z,7.70
2022-07-26T22:53:48.946Z,4.60
2022-07-26T22:56:16.798Z,10.53
2022-07-26T22:58:46.540Z,6.47
2022-07-26T23:01:13.015Z,11.33
2022-07-26T23:03:39.517Z,5.93
2022-07-26T23:06:14.941Z,7.80
2022-07-26T23:08:54.839Z,10.50
2022-07-26T23:11:21.239Z,7.23
2022-07-26T23:13:47.615Z,10.30
2022-07-26T23:16:14.102Z,8.13
2022-07-26T23:18:40.562Z,8.40
2022-07-26T23:21:07.006Z,9.87
2022-07-26T23:23:33.443Z,9.60
2022-07-26T23:25:59.894Z,8.17
2022-07-26T23:28:35.470Z,9.40
2022-07-26T23:31:05.424Z,5.73
2022-07-26T23:33:52.776Z,7.70
2022-07-26T23:36:18.218Z,6.67
2022-07-26T23:38:44.610Z,10.73
2022-07-26T23:41:11.037Z,6.73
2022-07-26T23:43:37.543Z,5.13
2022-07-26T23:46:03.955Z,7.20
2022-07-26T23:48:30.534Z,3.47
2022-07-26T23:50:57.098Z,6.10
2022-07-26T23:53:26.652Z,6.03
2022-07-26T23:55:53.643Z,9.33
2022-07-26T23:58:20.080Z,7.40
